sensor_id;sensor_type;location;lat;lon;timestamp;P1;durP1;ratioP1;P2;durP2;ratioP2
20251;SDS011;10284;58.364;15.550;2023-04-12T00:01:48;33.28;;;20.77;;
20251;SDS011;10284;58.364;15.550;2023-04-12T00:04:14;33.78;;;21.77;;
20251;SDS011;10284;58.364;15.550;2023-04-12T00:06:40;31.80;;;21.02;;
20251;SDS011;10284;58.364;15.550;2023-04-12T00:09:06;37.13;;;22.52;;
20251;SDS011;10284;58.364;15.550;2023-04-12T00:11:32;32.05;;;20.95;;
20251;SDS011;10284;58.364;15.550;2023-04-12T00:13:58;27.70;;;19.10;;
20251;SDS011;10284;58.364;15.550;2023-04-12T00:16:24;34.35;;;22.05;;
20251;SDS011;10284;58.364;15.550;2023-04-12T00:18:49;32.53;;;19.67;;
20251;SDS011;10284;58.364;15.550;2023-04-12T00:21:15;31.80;;;20.98;;
20251;SDS011;10284;58.364;15.550;2023-04-12T00:23:44;34.00;;;20.70;;
20251;SDS011;10284;58.364;15.550;2023-04-12T00:26:11;33.88;;;20.92;;
20251;SDS011;10284;58.364;15.550;2023-04-12T00:28:37;29.15;;;19.95;;
20251;SDS011;10284;58.364;15.550;2023-04-12T00:31:03;34.00;;;21.80;;
20251;SDS011;10284;58.364;15.550;2023-04-12T00:33:28;31.33;;;21.92;;
20251;SDS011;10284;58.364;15.550;2023-04-12T00:35:54;32.97;;;21.17;;
20251;SDS011;10284;58.364;15.550;2023-04-12T00:38:19;31.92;;;20.88;;
20251;SDS011;10284;58.364;15.550;2023-04-12T00:40:45;32.00;;;20.92;;
20251;SDS011;10284;58.364;15.550;2023-04-12T00:43:10;36.10;;;22.35;;
20251;SDS011;10284;58.364;15.550;2023-04-12T00:45:39;33.20;;;21.13;;
20251;SDS011;10284;58.364;15.550;2023-04-12T00:48:05;34.67;;;21.50;;
20251;SDS011;10284;58.364;15.550;2023-04-12T00:50:32;32.25;;;21.80;;
20251;SDS011;10284;58.364;15.550;2023-04-12T00:52:59;33.40;;;21.38;;
20251;SDS011;10284;58.364;15.550;2023-04-12T00:55:24;33.47;;;20.92;;
20251;SDS011;10284;58.364;15.550;2023-04-12T00:57:50;35.60;;;21.25;;
20251;SDS011;10284;58.364;15.550;2023-04-12T01:00:15;36.55;;;21.45;;
20251;SDS011;10284;58.364;15.550;2023-04-12T01:02:42;32.75;;;21.80;;
20251;SDS011;10284;58.364;15.550;2023-04-12T01:05:11;36.53;;;22.38;;
20251;SDS011;10284;58.364;15.550;2023-04-12T01:13:28;38.22;;;22.58;;
20251;SDS011;10284;58.364;15.550;2023-04-12T01:18:32;36.40;;;22.70;;
20251;SDS011;10284;58.364;15.550;2023-04-12T01:21:05;36.20;;;21.88;;
20251;SDS011;10284;58.364;15.550;2023-04-12T01:28:52;36.38;;;22.98;;
20251;SDS011;10284;58.364;15.550;2023-04-12T01:31:18;34.80;;;22.02;;
20251;SDS011;10284;58.364;15.550;2023-04-12T01:33:44;39.70;;;23.35;;
20251;SDS011;10284;58.364;15.550;2023-04-12T01:36:17;36.03;;;22.88;;
20251;SDS011;10284;58.364;15.550;2023-04-12T01:38:45;36.42;;;22.92;;
20251;SDS011;10284;58.364;15.550;2023-04-12T01:41:12;36.75;;;22.13;;
20251;SDS011;10284;58.364;15.550;2023-04-12T01:43:42;41.55;;;23.92;;
20251;SDS011;10284;58.364;15.550;2023-04-12T01:46:08;39.85;;;22.48;;
20251;SDS011;10284;58.364;15.550;2023-04-12T01:48:36;36.53;;;23.30;;
20251;SDS011;10284;58.364;15.550;2023-04-12T01:54:16;38.78;;;22.58;;
20251;SDS011;10284;58.364;15.550;2023-04-12T01:56:37;39.22;;;23.38;;
20251;SDS011;10284;58.364;15.550;2023-04-12T01:59:05;38.05;;;22.45;;
20251;SDS011;10284;58.364;15.550;2023-04-12T02:01:31;38.95;;;23.52;;
20251;SDS011;10284;58.364;15.550;2023-04-12T02:03:57;31.25;;;20.85;;
20251;SDS011;10284;58.364;15.550;2023-04-12T02:06:24;34.80;;;22.00;;
20251;SDS011;10284;58.364;15.550;2023-04-12T02:08:55;36.50;;;22.23;;
20251;SDS011;10284;58.364;15.550;2023-04-12T02:11:22;37.15;;;22.42;;
20251;SDS011;10284;58.364;15.550;2023-04-12T02:13:48;32.70;;;21.60;;
20251;SDS011;10284;58.364;15.550;2023-04-12T02:16:13;32.95;;;20.83;;
20251;SDS011;10284;58.364;15.550;2023-04-12T02:18:38;32.55;;;20.58;;
20251;SDS011;10284;58.364;15.550;2023-04-12T02:21:05;32.92;;;20.77;;
20251;SDS011;10284;58.364;15.550;2023-04-12T02:23:31;31.73;;;20.73;;
20251;SDS011;10284;58.364;15.550;2023-04-12T02:25:56;35.25;;;21.58;;
20251;SDS011;10284;58.364;15.550;2023-04-12T02:28:21;35.28;;;21.55;;
20251;SDS011;10284;58.364;15.550;2023-04-12T02:30:47;30.30;;;20.30;;
20251;SDS011;10284;58.364;15.550;2023-04-12T02:33:13;31.30;;;20.23;;
20251;SDS011;10284;58.364;15.550;2023-04-12T02:35:39;29.50;;;19.85;;
20251;SDS011;10284;58.364;15.550;2023-04-12T02:38:05;35.28;;;21.48;;
20251;SDS011;10284;58.364;15.550;2023-04-12T02:40:38;32.40;;;20.95;;
20251;SDS011;10284;58.364;15.550;2023-04-12T02:43:07;35.42;;;22.23;;
20251;SDS011;10284;58.364;15.550;2023-04-12T02:45:33;38.65;;;23.08;;
20251;SDS011;10284;58.364;15.550;2023-04-12T02:47:58;37.25;;;22.13;;
20251;SDS011;10284;58.364;15.550;2023-04-12T02:50:24;33.15;;;21.58;;
20251;SDS011;10284;58.364;15.550;2023-04-12T02:52:49;32.75;;;21.17;;
20251;SDS011;10284;58.364;15.550;2023-04-12T02:55:15;35.17;;;22.38;;
20251;SDS011;10284;58.364;15.550;2023-04-12T02:57:42;35.45;;;22.10;;
20251;SDS011;10284;58.364;15.550;2023-04-12T03:00:09;33.55;;;21.58;;
20251;SDS011;10284;58.364;15.550;2023-04-12T03:02:37;34.25;;;21.05;;
20251;SDS011;10284;58.364;15.550;2023-04-12T03:05:02;31.83;;;22.17;;
20251;SDS011;10284;58.364;15.550;2023-04-12T03:07:29;31.58;;;20.55;;
20251;SDS011;10284;58.364;15.550;2023-04-12T03:09:54;34.63;;;21.63;;
20251;SDS011;10284;58.364;15.550;2023-04-12T03:12:20;34.40;;;21.60;;
20251;SDS011;10284;58.364;15.550;2023-04-12T03:14:45;34.90;;;21.10;;
20251;SDS011;10284;58.364;15.550;2023-04-12T03:17:11;33.05;;;20.90;;
20251;SDS011;10284;58.364;15.550;2023-04-12T03:19:36;32.38;;;21.02;;
20251;SDS011;10284;58.364;15.550;2023-04-12T03:22:02;33.60;;;19.90;;
20251;SDS011;10284;58.364;15.550;2023-04-12T03:24:28;34.30;;;20.60;;
20251;SDS011;10284;58.364;15.550;2023-04-12T03:26:53;32.35;;;19.33;;
20251;SDS011;10284;58.364;15.550;2023-04-12T03:29:19;27.10;;;18.23;;
20251;SDS011;10284;58.364;15.550;2023-04-12T03:31:44;26.80;;;17.67;;
20251;SDS011;10284;58.364;15.550;2023-04-12T03:34:10;28.70;;;17.55;;
20251;SDS011;10284;58.364;15.550;2023-04-12T03:36:35;25.50;;;16.38;;
20251;SDS011;10284;58.364;15.550;2023-04-12T03:39:02;23.15;;;15.35;;
20251;SDS011;10284;58.364;15.550;2023-04-12T03:41:27;24.38;;;15.82;;
20251;SDS011;10284;58.364;15.550;2023-04-12T03:43:53;24.60;;;15.70;;
20251;SDS011;10284;58.364;15.550;2023-04-12T03:46:18;24.85;;;16.45;;
20251;SDS011;10284;58.364;15.550;2023-04-12T03:48:44;23.48;;;14.63;;
20251;SDS011;10284;58.364;15.550;2023-04-12T03:51:09;24.20;;;13.98;;
20251;SDS011;10284;58.364;15.550;2023-04-12T03:53:39;22.13;;;13.23;;
20251;SDS011;10284;58.364;15.550;2023-04-12T03:56:04;20.98;;;13.60;;
20251;SDS011;10284;58.364;15.550;2023-04-12T03:58:30;19.80;;;12.65;;
20251;SDS011;10284;58.364;15.550;2023-04-12T04:00:58;20.55;;;13.35;;
20251;SDS011;10284;58.364;15.550;2023-04-12T04:03:25;18.75;;;12.68;;
20251;SDS011;10284;58.364;15.550;2023-04-12T04:05:54;18.75;;;11.75;;
20251;SDS011;10284;58.364;15.550;2023-04-12T04:08:20;18.38;;;11.88;;
20251;SDS011;10284;58.364;15.550;2023-04-12T04:10:45;19.63;;;12.57;;
20251;SDS011;10284;58.364;15.550;2023-04-12T04:13:11;18.80;;;11.77;;
20251;SDS011;10284;58.364;15.550;2023-04-12T04:15:36;16.73;;;11.27;;
20251;SDS011;10284;58.364;15.550;2023-04-12T04:18:02;18.05;;;12.05;;
20251;SDS011;10284;58.364;15.550;2023-04-12T04:20:27;19.35;;;11.75;;
20251;SDS011;10284;58.364;15.550;2023-04-12T04:22:52;20.30;;;11.77;;
20251;SDS011;10284;58.364;15.550;2023-04-12T04:25:21;17.38;;;10.98;;
20251;SDS011;10284;58.364;15.550;2023-04-12T04:30:19;16.30;;;11.07;;
20251;SDS011;10284;58.364;15.550;2023-04-12T04:32:47;16.33;;;10.98;;
20251;SDS011;10284;58.364;15.550;2023-04-12T04:35:13;18.90;;;11.73;;
20251;SDS011;10284;58.364;15.550;2023-04-12T04:37:40;15.30;;;10.23;;
20251;SDS011;10284;58.364;15.550;2023-04-12T04:40:06;15.90;;;10.98;;
20251;SDS011;10284;58.364;15.550;2023-04-12T04:42:32;16.98;;;10.68;;
20251;SDS011;10284;58.364;15.550;2023-04-12T04:44:58;17.00;;;10.98;;
20251;SDS011;10284;58.364;15.550;2023-04-12T04:47:36;17.45;;;10.32;;
20251;SDS011;10284;58.364;15.550;2023-04-12T04:50:02;16.48;;;10.68;;
20251;SDS011;10284;58.364;15.550;2023-04-12T04:52:28;15.30;;;10.35;;
20251;SDS011;10284;58.364;15.550;2023-04-12T04:54:53;16.80;;;10.57;;
20251;SDS011;10284;58.364;15.550;2023-04-12T04:57:21;16.33;;;10.57;;
20251;SDS011;10284;58.364;15.550;2023-04-12T04:59:47;15.02;;;9.88;;
20251;SDS011;10284;58.364;15.550;2023-04-12T05:02:13;17.13;;;10.40;;
20251;SDS011;10284;58.364;15.550;2023-04-12T05:04:38;16.83;;;10.45;;
20251;SDS011;10284;58.364;15.550;2023-04-12T05:07:04;20.85;;;11.10;;
20251;SDS011;10284;58.364;15.550;2023-04-12T05:09:29;17.80;;;10.90;;
20251;SDS011;10284;58.364;15.550;2023-04-12T05:11:54;17.20;;;11.00;;
20251;SDS011;10284;58.364;15.550;2023-04-12T05:14:20;18.95;;;10.98;;
20251;SDS011;10284;58.364;15.550;2023-04-12T05:16:45;17.20;;;10.65;;
20251;SDS011;10284;58.364;15.550;2023-04-12T05:19:11;17.40;;;10.43;;
20251;SDS011;10284;58.364;15.550;2023-04-12T05:21:36;15.60;;;9.98;;
20251;SDS011;10284;58.364;15.550;2023-04-12T05:24:02;16.90;;;10.85;;
20251;SDS011;10284;58.364;15.550;2023-04-12T05:26:27;15.80;;;10.43;;
20251;SDS011;10284;58.364;15.550;2023-04-12T05:28:53;15.57;;;11.05;;
20251;SDS011;10284;58.364;15.550;2023-04-12T05:31:18;17.33;;;10.65;;
20251;SDS011;10284;58.364;15.550;2023-04-12T05:33:50;22.90;;;12.02;;
20251;SDS011;10284;58.364;15.550;2023-04-12T05:36:15;20.30;;;11.98;;
20251;SDS011;10284;58.364;15.550;2023-04-12T05:38:41;19.25;;;11.75;;
20251;SDS011;10284;58.364;15.550;2023-04-12T05:41:07;20.52;;;13.05;;
20251;SDS011;10284;58.364;15.550;2023-04-12T05:43:32;18.95;;;12.63;;
20251;SDS011;10284;58.364;15.550;2023-04-12T05:45:58;17.48;;;12.20;;
20251;SDS011;10284;58.364;15.550;2023-04-12T05:48:23;17.52;;;10.85;;
20251;SDS011;10284;58.364;15.550;2023-04-12T05:50:49;16.75;;;11.07;;
20251;SDS011;10284;58.364;15.550;2023-04-12T05:53:15;16.73;;;10.43;;
20251;SDS011;10284;58.364;15.550;2023-04-12T05:55:41;17.50;;;11.05;;
20251;SDS011;10284;58.364;15.550;2023-04-12T05:58:06;17.10;;;11.32;;
20251;SDS011;10284;58.364;15.550;2023-04-12T06:00:32;16.33;;;10.75;;
20251;SDS011;10284;58.364;15.550;2023-04-12T06:02:57;19.42;;;10.68;;
20251;SDS011;10284;58.364;15.550;2023-04-12T06:05:23;13.32;;;8.80;;
20251;SDS011;10284;58.364;15.550;2023-04-12T06:07:48;12.30;;;8.10;;
20251;SDS011;10284;58.364;15.550;2023-04-12T06:10:14;11.05;;;7.10;;
20251;SDS011;10284;58.364;15.550;2023-04-12T06:12:41;12.00;;;8.18;;
20251;SDS011;10284;58.364;15.550;2023-04-12T06:15:06;11.63;;;8.30;;
20251;SDS011;10284;58.364;15.550;2023-04-12T06:17:33;12.85;;;8.60;;
20251;SDS011;10284;58.364;15.550;2023-04-12T06:19:58;11.68;;;7.93;;
20251;SDS011;10284;58.364;15.550;2023-04-12T06:22:24;11.52;;;7.93;;
20251;SDS011;10284;58.364;15.550;2023-04-12T06:24:49;12.48;;;8.57;;
20251;SDS011;10284;58.364;15.550;2023-04-12T06:27:15;11.48;;;8.23;;
20251;SDS011;10284;58.364;15.550;2023-04-12T06:29:40;12.85;;;8.00;;
20251;SDS011;10284;58.364;15.550;2023-04-12T06:32:06;13.32;;;8.68;;
20251;SDS011;10284;58.364;15.550;2023-04-12T06:34:31;13.98;;;8.40;;
20251;SDS011;10284;58.364;15.550;2023-04-12T06:36:56;12.95;;;8.63;;
20251;SDS011;10284;58.364;15.550;2023-04-12T06:39:22;12.52;;;8.77;;
20251;SDS011;10284;58.364;15.550;2023-04-12T06:41:47;12.13;;;8.32;;
20251;SDS011;10284;58.364;15.550;2023-04-12T06:44:14;11.85;;;8.25;;
20251;SDS011;10284;58.364;15.550;2023-04-12T06:46:40;12.55;;;8.38;;
20251;SDS011;10284;58.364;15.550;2023-04-12T06:49:07;14.63;;;8.52;;
20251;SDS011;10284;58.364;15.550;2023-04-12T06:51:32;12.80;;;8.07;;
20251;SDS011;10284;58.364;15.550;2023-04-12T06:53:59;12.65;;;7.80;;
20251;SDS011;10284;58.364;15.550;2023-04-12T06:56:25;12.30;;;7.93;;
20251;SDS011;10284;58.364;15.550;2023-04-12T06:58:50;16.00;;;8.57;;
20251;SDS011;10284;58.364;15.550;2023-04-12T07:01:16;14.68;;;8.30;;
20251;SDS011;10284;58.364;15.550;2023-04-12T07:03:41;12.18;;;8.20;;
20251;SDS011;10284;58.364;15.550;2023-04-12T07:06:07;13.85;;;8.25;;
20251;SDS011;10284;58.364;15.550;2023-04-12T07:08:33;10.85;;;7.72;;
20251;SDS011;10284;58.364;15.550;2023-04-12T07:10:59;12.27;;;8.20;;
20251;SDS011;10284;58.364;15.550;2023-04-12T07:13:25;11.65;;;8.25;;
20251;SDS011;10284;58.364;15.550;2023-04-12T07:15:50;14.85;;;8.57;;
20251;SDS011;10284;58.364;15.550;2023-04-12T07:18:16;11.75;;;7.90;;
20251;SDS011;10284;58.364;15.550;2023-04-12T07:20:42;12.73;;;9.02;;
20251;SDS011;10284;58.364;15.550;2023-04-12T07:23:11;14.43;;;8.75;;
20251;SDS011;10284;58.364;15.550;2023-04-12T07:25:36;11.88;;;7.82;;
20251;SDS011;10284;58.364;15.550;2023-04-12T07:28:02;11.38;;;7.68;;
20251;SDS011;10284;58.364;15.550;2023-04-12T07:30:28;12.45;;;8.45;;
20251;SDS011;10284;58.364;15.550;2023-04-12T07:32:54;13.80;;;8.65;;
20251;SDS011;10284;58.364;15.550;2023-04-12T07:35:19;13.15;;;9.10;;
20251;SDS011;10284;58.364;15.550;2023-04-12T07:37:46;17.58;;;8.40;;
20251;SDS011;10284;58.364;15.550;2023-04-12T07:40:11;14.02;;;8.60;;
20251;SDS011;10284;58.364;15.550;2023-04-12T07:42:36;12.82;;;7.43;;
20251;SDS011;10284;58.364;15.550;2023-04-12T07:45:02;12.63;;;7.40;;
20251;SDS011;10284;58.364;15.550;2023-04-12T07:47:28;16.27;;;7.75;;
20251;SDS011;10284;58.364;15.550;2023-04-12T07:49:53;12.13;;;8.00;;
20251;SDS011;10284;58.364;15.550;2023-04-12T07:52:19;12.23;;;7.93;;
20251;SDS011;10284;58.364;15.550;2023-04-12T07:54:45;16.60;;;8.55;;
20251;SDS011;10284;58.364;15.550;2023-04-12T07:57:10;13.07;;;8.40;;
20251;SDS011;10284;58.364;15.550;2023-04-12T07:59:36;12.40;;;7.72;;
20251;SDS011;10284;58.364;15.550;2023-04-12T08:02:01;13.70;;;8.30;;
20251;SDS011;10284;58.364;15.550;2023-04-12T08:04:27;12.85;;;8.13;;
20251;SDS011;10284;58.364;15.550;2023-04-12T08:06:53;11.43;;;8.13;;
20251;SDS011;10284;58.364;15.550;2023-04-12T08:09:18;11.07;;;7.63;;
20251;SDS011;10284;58.364;15.550;2023-04-12T08:11:44;12.20;;;8.32;;
20251;SDS011;10284;58.364;15.550;2023-04-12T08:14:11;14.55;;;8.77;;
20251;SDS011;10284;58.364;15.550;2023-04-12T08:16:37;12.80;;;8.23;;
20251;SDS011;10284;58.364;15.550;2023-04-12T08:19:02;15.75;;;9.02;;
20251;SDS011;10284;58.364;15.550;2023-04-12T08:21:28;15.55;;;9.00;;
20251;SDS011;10284;58.364;15.550;2023-04-12T08:23:54;16.52;;;9.00;;
20251;SDS011;10284;58.364;15.550;2023-04-12T08:26:20;16.10;;;9.35;;
20251;SDS011;10284;58.364;15.550;2023-04-12T08:28:46;15.93;;;8.50;;
20251;SDS011;10284;58.364;15.550;2023-04-12T08:31:12;21.70;;;10.07;;
20251;SDS011;10284;58.364;15.550;2023-04-12T08:33:38;16.25;;;9.52;;
20251;SDS011;10284;58.364;15.550;2023-04-12T08:36:04;12.82;;;8.88;;
20251;SDS011;10284;58.364;15.550;2023-04-12T08:38:30;15.50;;;9.15;;
20251;SDS011;10284;58.364;15.550;2023-04-12T08:40:55;16.17;;;10.10;;
20251;SDS011;10284;58.364;15.550;2023-04-12T08:43:21;19.02;;;9.95;;
20251;SDS011;10284;58.364;15.550;2023-04-12T08:45:50;14.07;;;8.85;;
20251;SDS011;10284;58.364;15.550;2023-04-12T08:48:15;13.43;;;8.73;;
20251;SDS011;10284;58.364;15.550;2023-04-12T08:50:42;14.32;;;8.90;;
20251;SDS011;10284;58.364;15.550;2023-04-12T08:53:09;13.75;;;8.80;;
20251;SDS011;10284;58.364;15.550;2023-04-12T08:55:35;13.20;;;9.30;;
20251;SDS011;10284;58.364;15.550;2023-04-12T08:58:00;14.10;;;9.25;;
20251;SDS011;10284;58.364;15.550;2023-04-12T09:00:31;13.55;;;8.77;;
20251;SDS011;10284;58.364;15.550;2023-04-12T09:02:58;13.32;;;9.27;;
20251;SDS011;10284;58.364;15.550;2023-04-12T09:05:27;15.00;;;9.38;;
20251;SDS011;10284;58.364;15.550;2023-04-12T09:07:54;12.60;;;9.10;;
20251;SDS011;10284;58.364;15.550;2023-04-12T09:13:14;13.15;;;8.50;;
20251;SDS011;10284;58.364;15.550;2023-04-12T09:15:47;10.88;;;7.40;;
20251;SDS011;10284;58.364;15.550;2023-04-12T09:18:13;11.65;;;8.18;;
20251;SDS011;10284;58.364;15.550;2023-04-12T09:20:38;11.10;;;7.93;;
20251;SDS011;10284;58.364;15.550;2023-04-12T09:26:01;11.18;;;8.10;;
20251;SDS011;10284;58.364;15.550;2023-04-12T09:28:28;12.15;;;8.77;;
20251;SDS011;10284;58.364;15.550;2023-04-12T09:30:55;14.27;;;8.88;;
20251;SDS011;10284;58.364;15.550;2023-04-12T09:33:23;11.13;;;7.80;;
20251;SDS011;10284;58.364;15.550;2023-04-12T09:36:01;13.13;;;8.23;;
20251;SDS011;10284;58.364;15.550;2023-04-12T09:38:27;12.50;;;7.18;;
20251;SDS011;10284;58.364;15.550;2023-04-12T09:40:54;9.75;;;6.65;;
20251;SDS011;10284;58.364;15.550;2023-04-12T09:43:34;10.75;;;7.07;;
20251;SDS011;10284;58.364;15.550;2023-04-12T09:46:13;7.82;;;5.45;;
20251;SDS011;10284;58.364;15.550;2023-04-12T09:48:39;8.23;;;6.25;;
20251;SDS011;10284;58.364;15.550;2023-04-12T09:51:07;7.60;;;5.65;;
20251;SDS011;10284;58.364;15.550;2023-04-12T09:53:33;9.38;;;6.38;;
20251;SDS011;10284;58.364;15.550;2023-04-12T09:56:00;9.55;;;6.65;;
20251;SDS011;10284;58.364;15.550;2023-04-12T09:58:27;10.18;;;5.85;;
20251;SDS011;10284;58.364;15.550;2023-04-12T10:00:53;8.07;;;5.85;;
20251;SDS011;10284;58.364;15.550;2023-04-12T10:03:21;8.18;;;5.85;;
20251;SDS011;10284;58.364;15.550;2023-04-12T10:05:46;8.82;;;5.97;;
20251;SDS011;10284;58.364;15.550;2023-04-12T10:08:11;8.07;;;6.18;;
20251;SDS011;10284;58.364;15.550;2023-04-12T10:10:37;10.35;;;6.32;;
20251;SDS011;10284;58.364;15.550;2023-04-12T10:13:03;9.35;;;6.45;;
20251;SDS011;10284;58.364;15.550;2023-04-12T10:15:29;9.23;;;6.90;;
20251;SDS011;10284;58.364;15.550;2023-04-12T10:17:56;9.45;;;6.43;;
20251;SDS011;10284;58.364;15.550;2023-04-12T10:20:22;9.43;;;6.75;;
20251;SDS011;10284;58.364;15.550;2023-04-12T10:22:48;10.13;;;6.10;;
20251;SDS011;10284;58.364;15.550;2023-04-12T10:25:19;9.48;;;6.30;;
20251;SDS011;10284;58.364;15.550;2023-04-12T10:27:45;6.32;;;4.63;;
20251;SDS011;10284;58.364;15.550;2023-04-12T10:35:28;7.00;;;4.43;;
20251;SDS011;10284;58.364;15.550;2023-04-12T10:40:26;6.70;;;5.07;;
20251;SDS011;10284;58.364;15.550;2023-04-12T10:45:42;6.82;;;4.43;;
20251;SDS011;10284;58.364;15.550;2023-04-12T10:48:27;6.78;;;4.70;;
20251;SDS011;10284;58.364;15.550;2023-04-12T10:53:49;6.97;;;5.00;;
20251;SDS011;10284;58.364;15.550;2023-04-12T10:58:59;7.80;;;4.90;;
20251;SDS011;10284;58.364;15.550;2023-04-12T11:01:26;7.22;;;5.40;;
20251;SDS011;10284;58.364;15.550;2023-04-12T11:06:47;8.23;;;5.68;;
20251;SDS011;10284;58.364;15.550;2023-04-12T11:14:35;4.53;;;3.60;;
20251;SDS011;10284;58.364;15.550;2023-04-12T11:19:37;4.63;;;3.70;;
20251;SDS011;10284;58.364;15.550;2023-04-12T11:22:03;5.05;;;3.72;;
20251;SDS011;10284;58.364;15.550;2023-04-12T11:24:30;4.97;;;4.13;;
20251;SDS011;10284;58.364;15.550;2023-04-12T11:26:56;3.63;;;3.10;;
20251;SDS011;10284;58.364;15.550;2023-04-12T11:29:22;5.50;;;3.35;;
20251;SDS011;10284;58.364;15.550;2023-04-12T11:31:48;4.68;;;3.15;;
20251;SDS011;10284;58.364;15.550;2023-04-12T11:34:14;4.63;;;3.13;;
20251;SDS011;10284;58.364;15.550;2023-04-12T11:36:41;5.43;;;3.70;;
20251;SDS011;10284;58.364;15.550;2023-04-12T11:39:07;5.38;;;3.47;;
20251;SDS011;10284;58.364;15.550;2023-04-12T11:41:33;4.22;;;3.40;;
20251;SDS011;10284;58.364;15.550;2023-04-12T11:43:58;4.25;;;3.75;;
20251;SDS011;10284;58.364;15.550;2023-04-12T11:46:24;6.20;;;4.10;;
20251;SDS011;10284;58.364;15.550;2023-04-12T11:48:51;6.18;;;4.03;;
20251;SDS011;10284;58.364;15.550;2023-04-12T11:51:17;4.90;;;3.60;;
20251;SDS011;10284;58.364;15.550;2023-04-12T11:53:51;4.95;;;3.78;;
20251;SDS011;10284;58.364;15.550;2023-04-12T11:56:16;4.35;;;3.83;;
20251;SDS011;10284;58.364;15.550;2023-04-12T11:58:42;6.57;;;4.53;;
20251;SDS011;10284;58.364;15.550;2023-04-12T12:01:11;6.93;;;4.10;;
20251;SDS011;10284;58.364;15.550;2023-04-12T12:03:38;6.05;;;4.20;;
20251;SDS011;10284;58.364;15.550;2023-04-12T12:06:04;6.03;;;4.07;;
20251;SDS011;10284;58.364;15.550;2023-04-12T12:08:31;36.45;;;7.75;;
20251;SDS011;10284;58.364;15.550;2023-04-12T12:10:57;7.60;;;4.68;;
20251;SDS011;10284;58.364;15.550;2023-04-12T12:13:22;4.60;;;4.10;;
20251;SDS011;10284;58.364;15.550;2023-04-12T12:15:47;5.40;;;4.18;;
20251;SDS011;10284;58.364;15.550;2023-04-12T12:18:15;6.45;;;4.13;;
20251;SDS011;10284;58.364;15.550;2023-04-12T12:20:42;4.97;;;3.85;;
20251;SDS011;10284;58.364;15.550;2023-04-12T12:23:25;6.18;;;4.03;;
20251;SDS011;10284;58.364;15.550;2023-04-12T12:25:52;4.72;;;3.55;;
20251;SDS011;10284;58.364;15.550;2023-04-12T12:28:17;6.95;;;4.22;;
20251;SDS011;10284;58.364;15.550;2023-04-12T12:30:43;7.13;;;3.85;;
20251;SDS011;10284;58.364;15.550;2023-04-12T12:33:08;5.35;;;3.97;;
20251;SDS011;10284;58.364;15.550;2023-04-12T12:35:35;5.30;;;3.80;;
20251;SDS011;10284;58.364;15.550;2023-04-12T12:38:00;4.82;;;3.50;;
20251;SDS011;10284;58.364;15.550;2023-04-12T12:40:30;3.63;;;2.83;;
20251;SDS011;10284;58.364;15.550;2023-04-12T12:42:57;4.05;;;3.17;;
20251;SDS011;10284;58.364;15.550;2023-04-12T12:45:23;3.58;;;2.88;;
20251;SDS011;10284;58.364;15.550;2023-04-12T12:47:50;4.93;;;2.97;;
20251;SDS011;10284;58.364;15.550;2023-04-12T12:50:22;5.88;;;2.88;;
20251;SDS011;10284;58.364;15.550;2023-04-12T12:52:52;4.70;;;2.78;;
20251;SDS011;10284;58.364;15.550;2023-04-12T12:55:18;3.55;;;2.97;;
20251;SDS011;10284;58.364;15.550;2023-04-12T12:57:45;4.25;;;2.55;;
20251;SDS011;10284;58.364;15.550;2023-04-12T13:00:11;5.18;;;2.50;;
20251;SDS011;10284;58.364;15.550;2023-04-12T13:02:39;3.95;;;3.10;;
20251;SDS011;10284;58.364;15.550;2023-04-12T13:05:08;4.13;;;3.20;;
20251;SDS011;10284;58.364;15.550;2023-04-12T13:07:34;4.28;;;2.63;;
20251;SDS011;10284;58.364;15.550;2023-04-12T13:09:59;3.60;;;2.30;;
20251;SDS011;10284;58.364;15.550;2023-04-12T13:12:25;3.65;;;2.15;;
20251;SDS011;10284;58.364;15.550;2023-04-12T13:14:51;3.13;;;2.63;;
20251;SDS011;10284;58.364;15.550;2023-04-12T13:17:17;5.00;;;2.47;;
20251;SDS011;10284;58.364;15.550;2023-04-12T13:19:46;4.25;;;2.67;;
20251;SDS011;10284;58.364;15.550;2023-04-12T13:22:12;4.53;;;3.10;;
20251;SDS011;10284;58.364;15.550;2023-04-12T13:24:38;4.15;;;2.90;;
20251;SDS011;10284;58.364;15.550;2023-04-12T13:27:03;4.00;;;2.90;;
20251;SDS011;10284;58.364;15.550;2023-04-12T13:29:29;3.53;;;2.70;;
20251;SDS011;10284;58.364;15.550;2023-04-12T13:31:54;3.17;;;2.83;;
20251;SDS011;10284;58.364;15.550;2023-04-12T13:34:20;5.22;;;2.83;;
20251;SDS011;10284;58.364;15.550;2023-04-12T13:36:46;5.00;;;3.08;;
20251;SDS011;10284;58.364;15.550;2023-04-12T13:39:11;4.57;;;3.17;;
20251;SDS011;10284;58.364;15.550;2023-04-12T13:41:37;3.78;;;3.20;;
20251;SDS011;10284;58.364;15.550;2023-04-12T13:44:02;7.25;;;2.88;;
20251;SDS011;10284;58.364;15.550;2023-04-12T13:46:29;2.90;;;2.45;;
20251;SDS011;10284;58.364;15.550;2023-04-12T13:48:55;3.00;;;2.65;;
20251;SDS011;10284;58.364;15.550;2023-04-12T13:51:20;4.30;;;3.13;;
20251;SDS011;10284;58.364;15.550;2023-04-12T13:53:46;3.53;;;2.55;;
20251;SDS011;10284;58.364;15.550;2023-04-12T13:56:11;3.47;;;2.53;;
20251;SDS011;10284;58.364;15.550;2023-04-12T13:58:37;4.10;;;3.25;;
20251;SDS011;10284;58.364;15.550;2023-04-12T14:01:04;4.13;;;3.00;;
20251;SDS011;10284;58.364;15.550;2023-04-12T14:03:30;4.95;;;3.00;;
20251;SDS011;10284;58.364;15.550;2023-04-12T14:05:56;3.65;;;3.30;;
20251;SDS011;10284;58.364;15.550;2023-04-12T14:08:21;4.57;;;3.03;;
20251;SDS011;10284;58.364;15.550;2023-04-12T14:10:47;4.55;;;3.30;;
20251;SDS011;10284;58.364;15.550;2023-04-12T14:13:13;3.42;;;2.92;;
20251;SDS011;10284;58.364;15.550;2023-04-12T14:15:38;4.65;;;3.22;;
20251;SDS011;10284;58.364;15.550;2023-04-12T14:18:03;4.05;;;3.20;;
20251;SDS011;10284;58.364;15.550;2023-04-12T14:20:29;4.88;;;3.25;;
20251;SDS011;10284;58.364;15.550;2023-04-12T14:22:54;3.70;;;3.35;;
20251;SDS011;10284;58.364;15.550;2023-04-12T14:25:20;3.88;;;3.45;;
20251;SDS011;10284;58.364;15.550;2023-04-12T14:27:46;4.63;;;3.33;;
20251;SDS011;10284;58.364;15.550;2023-04-12T14:30:12;5.22;;;3.00;;
20251;SDS011;10284;58.364;15.550;2023-04-12T14:32:37;4.60;;;3.60;;
20251;SDS011;10284;58.364;15.550;2023-04-12T14:35:03;5.20;;;3.30;;
20251;SDS011;10284;58.364;15.550;2023-04-12T14:37:30;4.40;;;3.30;;
20251;SDS011;10284;58.364;15.550;2023-04-12T14:39:56;3.45;;;3.13;;
20251;SDS011;10284;58.364;15.550;2023-04-12T14:42:22;6.07;;;3.50;;
20251;SDS011;10284;58.364;15.550;2023-04-12T14:44:47;6.03;;;3.70;;
20251;SDS011;10284;58.364;15.550;2023-04-12T14:47:13;4.28;;;3.47;;
20251;SDS011;10284;58.364;15.550;2023-04-12T14:49:38;7.68;;;3.35;;
20251;SDS011;10284;58.364;15.550;2023-04-12T14:52:04;3.97;;;3.55;;
20251;SDS011;10284;58.364;15.550;2023-04-12T14:54:30;3.92;;;3.15;;
20251;SDS011;10284;58.364;15.550;2023-04-12T14:56:55;3.90;;;2.78;;
20251;SDS011;10284;58.364;15.550;2023-04-12T14:59:21;4.85;;;2.83;;
20251;SDS011;10284;58.364;15.550;2023-04-12T15:01:47;3.10;;;2.80;;
20251;SDS011;10284;58.364;15.550;2023-04-12T15:04:12;4.38;;;3.13;;
20251;SDS011;10284;58.364;15.550;2023-04-12T15:06:38;3.00;;;2.60;;
20251;SDS011;10284;58.364;15.550;2023-04-12T15:09:06;4.97;;;2.70;;